sensor_id;sensor_type;location;lat;lon;timestamp;P1;durP1;ratioP1;P2;durP2;ratioP2
53056;SDS011;38940;50.096;4.012;2023-04-24T00:02:12;9.57;;;5.33;;
53056;SDS011;38940;50.096;4.012;2023-04-24T00:04:38;9.27;;;5.50;;
53056;SDS011;38940;50.096;4.012;2023-04-24T00:07:10;12.38;;;5.55;;
53056;SDS011;38940;50.096;4.012;2023-04-24T00:09:36;11.75;;;5.38;;
53056;SDS011;38940;50.096;4.012;2023-04-24T00:12:02;10.40;;;5.47;;
53056;SDS011;38940;50.096;4.012;2023-04-24T00:14:31;10.80;;;6.20;;
53056;SDS011;38940;50.096;4.012;2023-04-24T00:16:57;10.20;;;5.15;;
53056;SDS011;38940;50.096;4.012;2023-04-24T00:19:23;9.48;;;5.55;;
53056;SDS011;38940;50.096;4.012;2023-04-24T00:21:49;11.52;;;6.13;;
53056;SDS011;38940;50.096;4.012;2023-04-24T00:24:15;10.00;;;5.47;;
53056;SDS011;38940;50.096;4.012;2023-04-24T00:26:42;10.88;;;5.90;;
53056;SDS011;38940;50.096;4.012;2023-04-24T00:29:08;11.65;;;5.65;;
53056;SDS011;38940;50.096;4.012;2023-04-24T00:31:34;14.23;;;6.57;;
53056;SDS011;38940;50.096;4.012;2023-04-24T00:34:00;13.50;;;6.47;;
53056;SDS011;38940;50.096;4.012;2023-04-24T00:36:27;12.17;;;5.70;;
53056;SDS011;38940;50.096;4.012;2023-04-24T00:38:53;12.55;;;5.32;;
53056;SDS011;38940;50.096;4.012;2023-04-24T00:41:20;9.13;;;5.18;;
53056;SDS011;38940;50.096;4.012;2023-04-24T00:43:46;10.93;;;5.40;;
53056;SDS011;38940;50.096;4.012;2023-04-24T00:46:13;10.52;;;5.30;;
53056;SDS011;38940;50.096;4.012;2023-04-24T00:48:40;8.73;;;4.67;;
53056;SDS011;38940;50.096;4.012;2023-04-24T00:51:06;11.57;;;5.00;;
53056;SDS011;38940;50.096;4.012;2023-04-24T00:53:32;10.13;;;5.30;;
53056;SDS011;38940;50.096;4.012;2023-04-24T00:55:58;9.02;;;4.70;;
53056;SDS011;38940;50.096;4.012;2023-04-24T00:58:25;11.70;;;5.05;;
53056;SDS011;38940;50.096;4.012;2023-04-24T01:00:51;11.30;;;5.30;;
53056;SDS011;38940;50.096;4.012;2023-04-24T01:03:21;12.17;;;5.37;;
53056;SDS011;38940;50.096;4.012;2023-04-24T01:05:48;9.07;;;4.75;;
53056;SDS011;38940;50.096;4.012;2023-04-24T01:08:15;11.60;;;4.78;;
53056;SDS011;38940;50.096;4.012;2023-04-24T01:10:41;8.52;;;5.30;;
53056;SDS011;38940;50.096;4.012;2023-04-24T01:13:07;9.13;;;4.28;;
53056;SDS011;38940;50.096;4.012;2023-04-24T01:15:34;10.63;;;5.20;;
53056;SDS011;38940;50.096;4.012;2023-04-24T01:18:00;9.40;;;4.75;;
53056;SDS011;38940;50.096;4.012;2023-04-24T01:20:26;12.90;;;5.40;;
53056;SDS011;38940;50.096;4.012;2023-04-24T01:22:54;10.98;;;5.28;;
53056;SDS011;38940;50.096;4.012;2023-04-24T01:25:21;7.93;;;4.57;;
53056;SDS011;38940;50.096;4.012;2023-04-24T01:27:47;9.32;;;4.53;;
53056;SDS011;38940;50.096;4.012;2023-04-24T01:30:13;8.30;;;4.60;;
53056;SDS011;38940;50.096;4.012;2023-04-24T01:32:40;10.52;;;5.13;;
53056;SDS011;38940;50.096;4.012;2023-04-24T01:35:09;8.80;;;4.10;;
53056;SDS011;38940;50.096;4.012;2023-04-24T01:37:35;9.18;;;4.45;;
53056;SDS011;38940;50.096;4.012;2023-04-24T01:40:05;6.93;;;4.10;;
53056;SDS011;38940;50.096;4.012;2023-04-24T01:42:31;7.03;;;4.57;;
53056;SDS011;38940;50.096;4.012;2023-04-24T01:44:58;10.17;;;4.10;;
53056;SDS011;38940;50.096;4.012;2023-04-24T01:47:24;10.07;;;4.00;;
53056;SDS011;38940;50.096;4.012;2023-04-24T01:49:50;9.63;;;4.13;;
53056;SDS011;38940;50.096;4.012;2023-04-24T01:52:16;6.68;;;4.00;;
53056;SDS011;38940;50.096;4.012;2023-04-24T01:54:43;7.47;;;4.10;;
53056;SDS011;38940;50.096;4.012;2023-04-24T01:57:09;6.55;;;3.70;;
53056;SDS011;38940;50.096;4.012;2023-04-24T01:59:35;9.02;;;3.80;;
53056;SDS011;38940;50.096;4.012;2023-04-24T02:02:05;7.05;;;3.63;;
53056;SDS011;38940;50.096;4.012;2023-04-24T02:04:31;8.60;;;4.00;;
53056;SDS011;38940;50.096;4.012;2023-04-24T02:06:57;9.98;;;3.80;;
53056;SDS011;38940;50.096;4.012;2023-04-24T02:09:23;6.70;;;3.70;;
53056;SDS011;38940;50.096;4.012;2023-04-24T02:11:49;8.38;;;3.72;;
53056;SDS011;38940;50.096;4.012;2023-04-24T02:14:15;6.68;;;3.42;;
53056;SDS011;38940;50.096;4.012;2023-04-24T02:16:41;7.05;;;3.50;;
53056;SDS011;38940;50.096;4.012;2023-04-24T02:19:08;8.00;;;3.90;;
53056;SDS011;38940;50.096;4.012;2023-04-24T02:21:35;5.88;;;3.60;;
53056;SDS011;38940;50.096;4.012;2023-04-24T02:24:01;9.02;;;3.75;;
53056;SDS011;38940;50.096;4.012;2023-04-24T02:26:27;5.90;;;3.80;;
53056;SDS011;38940;50.096;4.012;2023-04-24T02:28:53;8.65;;;4.57;;
53056;SDS011;38940;50.096;4.012;2023-04-24T02:31:19;7.18;;;3.90;;
53056;SDS011;38940;50.096;4.012;2023-04-24T02:33:45;7.35;;;4.03;;
53056;SDS011;38940;50.096;4.012;2023-04-24T02:36:11;7.15;;;4.20;;
53056;SDS011;38940;50.096;4.012;2023-04-24T02:38:38;5.57;;;3.67;;
53056;SDS011;38940;50.096;4.012;2023-04-24T02:41:04;5.72;;;3.53;;
53056;SDS011;38940;50.096;4.012;2023-04-24T02:43:31;8.30;;;4.05;;
53056;SDS011;38940;50.096;4.012;2023-04-24T02:45:57;7.18;;;4.03;;
53056;SDS011;38940;50.096;4.012;2023-04-24T02:48:23;5.10;;;3.67;;
53056;SDS011;38940;50.096;4.012;2023-04-24T02:50:49;7.72;;;4.10;;
53056;SDS011;38940;50.096;4.012;2023-04-24T02:53:16;7.28;;;3.55;;
53056;SDS011;38940;50.096;4.012;2023-04-24T02:55:42;6.18;;;3.85;;
53056;SDS011;38940;50.096;4.012;2023-04-24T02:58:08;5.50;;;3.55;;
53056;SDS011;38940;50.096;4.012;2023-04-24T03:00:35;7.00;;;3.92;;
53056;SDS011;38940;50.096;4.012;2023-04-24T03:03:01;7.45;;;3.80;;
53056;SDS011;38940;50.096;4.012;2023-04-24T03:05:27;7.73;;;4.30;;
53056;SDS011;38940;50.096;4.012;2023-04-24T03:07:53;7.07;;;3.33;;
53056;SDS011;38940;50.096;4.012;2023-04-24T03:10:19;8.55;;;3.97;;
53056;SDS011;38940;50.096;4.012;2023-04-24T03:12:47;10.13;;;4.35;;
53056;SDS011;38940;50.096;4.012;2023-04-24T03:15:13;9.30;;;3.83;;
53056;SDS011;38940;50.096;4.012;2023-04-24T03:17:39;6.30;;;3.97;;
53056;SDS011;38940;50.096;4.012;2023-04-24T03:20:06;9.00;;;3.80;;
53056;SDS011;38940;50.096;4.012;2023-04-24T03:22:33;10.65;;;5.07;;
53056;SDS011;38940;50.096;4.012;2023-04-24T03:24:59;8.67;;;4.33;;
53056;SDS011;38940;50.096;4.012;2023-04-24T03:27:25;9.02;;;4.93;;
53056;SDS011;38940;50.096;4.012;2023-04-24T03:29:51;6.50;;;4.30;;
53056;SDS011;38940;50.096;4.012;2023-04-24T03:32:20;7.57;;;3.88;;
53056;SDS011;38940;50.096;4.012;2023-04-24T03:34:46;8.97;;;3.87;;
53056;SDS011;38940;50.096;4.012;2023-04-24T03:37:12;9.13;;;5.00;;
53056;SDS011;38940;50.096;4.012;2023-04-24T03:39:38;9.40;;;3.92;;
53056;SDS011;38940;50.096;4.012;2023-04-24T03:42:04;9.60;;;4.35;;
53056;SDS011;38940;50.096;4.012;2023-04-24T03:44:30;7.97;;;3.90;;
53056;SDS011;38940;50.096;4.012;2023-04-24T03:46:57;10.63;;;4.78;;
53056;SDS011;38940;50.096;4.012;2023-04-24T03:49:23;9.35;;;3.90;;
53056;SDS011;38940;50.096;4.012;2023-04-24T03:51:49;7.88;;;4.75;;
53056;SDS011;38940;50.096;4.012;2023-04-24T03:54:15;8.20;;;4.50;;
53056;SDS011;38940;50.096;4.012;2023-04-24T03:56:41;9.47;;;3.77;;
53056;SDS011;38940;50.096;4.012;2023-04-24T03:59:07;7.40;;;3.90;;
53056;SDS011;38940;50.096;4.012;2023-04-24T04:01:33;6.55;;;3.78;;
53056;SDS011;38940;50.096;4.012;2023-04-24T04:04:02;8.27;;;4.18;;
53056;SDS011;38940;50.096;4.012;2023-04-24T04:06:28;7.00;;;3.85;;
53056;SDS011;38940;50.096;4.012;2023-04-24T04:08:55;7.10;;;4.00;;
53056;SDS011;38940;50.096;4.012;2023-04-24T04:11:21;8.13;;;3.30;;
53056;SDS011;38940;50.096;4.012;2023-04-24T04:13:47;7.43;;;3.85;;
53056;SDS011;38940;50.096;4.012;2023-04-24T04:16:13;7.85;;;3.90;;
53056;SDS011;38940;50.096;4.012;2023-04-24T04:18:41;7.80;;;4.15;;
53056;SDS011;38940;50.096;4.012;2023-04-24T04:21:07;7.82;;;4.18;;
53056;SDS011;38940;50.096;4.012;2023-04-24T04:23:33;6.53;;;3.55;;
53056;SDS011;38940;50.096;4.012;2023-04-24T04:25:59;4.67;;;3.40;;
53056;SDS011;38940;50.096;4.012;2023-04-24T04:28:26;6.78;;;3.75;;
53056;SDS011;38940;50.096;4.012;2023-04-24T04:30:52;7.40;;;4.10;;
53056;SDS011;38940;50.096;4.012;2023-04-24T04:33:22;6.28;;;3.80;;
53056;SDS011;38940;50.096;4.012;2023-04-24T04:35:48;7.75;;;4.45;;
53056;SDS011;38940;50.096;4.012;2023-04-24T04:38:17;7.18;;;3.65;;
53056;SDS011;38940;50.096;4.012;2023-04-24T04:40:43;6.45;;;3.70;;
53056;SDS011;38940;50.096;4.012;2023-04-24T04:43:09;6.83;;;3.97;;
53056;SDS011;38940;50.096;4.012;2023-04-24T04:45:36;6.50;;;4.30;;
53056;SDS011;38940;50.096;4.012;2023-04-24T04:48:03;7.63;;;4.03;;
53056;SDS011;38940;50.096;4.012;2023-04-24T04:50:32;8.05;;;4.55;;
53056;SDS011;38940;50.096;4.012;2023-04-24T04:52:58;6.82;;;4.35;;
53056;SDS011;38940;50.096;4.012;2023-04-24T04:55:24;7.22;;;4.15;;
53056;SDS011;38940;50.096;4.012;2023-04-24T04:57:51;7.70;;;5.00;;
53056;SDS011;38940;50.096;4.012;2023-04-24T05:00:17;6.43;;;3.92;;
53056;SDS011;38940;50.096;4.012;2023-04-24T05:02:44;7.60;;;4.40;;
53056;SDS011;38940;50.096;4.012;2023-04-24T05:05:10;9.05;;;5.00;;
53056;SDS011;38940;50.096;4.012;2023-04-24T05:07:36;7.40;;;4.85;;
53056;SDS011;38940;50.096;4.012;2023-04-24T05:10:02;8.65;;;4.70;;
53056;SDS011;38940;50.096;4.012;2023-04-24T05:12:28;7.15;;;5.13;;
53056;SDS011;38940;50.096;4.012;2023-04-24T05:14:54;7.53;;;4.95;;
53056;SDS011;38940;50.096;4.012;2023-04-24T05:17:20;8.38;;;4.63;;
53056;SDS011;38940;50.096;4.012;2023-04-24T05:19:46;8.55;;;5.10;;
53056;SDS011;38940;50.096;4.012;2023-04-24T05:22:13;8.55;;;4.82;;
53056;SDS011;38940;50.096;4.012;2023-04-24T05:24:39;7.60;;;4.95;;
53056;SDS011;38940;50.096;4.012;2023-04-24T05:27:05;7.38;;;4.78;;
53056;SDS011;38940;50.096;4.012;2023-04-24T05:29:31;8.30;;;5.80;;
53056;SDS011;38940;50.096;4.012;2023-04-24T05:31:58;9.32;;;5.40;;
53056;SDS011;38940;50.096;4.012;2023-04-24T05:34:24;11.23;;;6.60;;
53056;SDS011;38940;50.096;4.012;2023-04-24T05:36:50;13.60;;;7.22;;
53056;SDS011;38940;50.096;4.012;2023-04-24T05:39:16;14.60;;;6.65;;
53056;SDS011;38940;50.096;4.012;2023-04-24T05:41:42;13.55;;;7.82;;
53056;SDS011;38940;50.096;4.012;2023-04-24T05:44:08;13.30;;;7.63;;
53056;SDS011;38940;50.096;4.012;2023-04-24T05:46:35;11.38;;;7.35;;
53056;SDS011;38940;50.096;4.012;2023-04-24T05:49:01;13.23;;;7.65;;
53056;SDS011;38940;50.096;4.012;2023-04-24T05:51:27;13.98;;;7.88;;
53056;SDS011;38940;50.096;4.012;2023-04-24T05:53:53;15.35;;;7.22;;
53056;SDS011;38940;50.096;4.012;2023-04-24T05:56:19;13.33;;;7.80;;
53056;SDS011;38940;50.096;4.012;2023-04-24T05:58:45;15.07;;;7.73;;
53056;SDS011;38940;50.096;4.012;2023-04-24T06:01:12;12.40;;;8.18;;
53056;SDS011;38940;50.096;4.012;2023-04-24T06:03:40;11.13;;;7.25;;
53056;SDS011;38940;50.096;4.012;2023-04-24T06:06:06;12.17;;;7.07;;
53056;SDS011;38940;50.096;4.012;2023-04-24T06:08:32;14.30;;;7.32;;
53056;SDS011;38940;50.096;4.012;2023-04-24T06:10:58;10.77;;;6.68;;
53056;SDS011;38940;50.096;4.012;2023-04-24T06:13:24;12.70;;;6.47;;
53056;SDS011;38940;50.096;4.012;2023-04-24T06:15:50;11.77;;;6.80;;
53056;SDS011;38940;50.096;4.012;2023-04-24T06:18:16;12.55;;;7.22;;
53056;SDS011;38940;50.096;4.012;2023-04-24T06:20:42;11.50;;;6.60;;
53056;SDS011;38940;50.096;4.012;2023-04-24T06:23:08;10.00;;;6.37;;
53056;SDS011;38940;50.096;4.012;2023-04-24T06:25:34;11.52;;;6.95;;
53056;SDS011;38940;50.096;4.012;2023-04-24T06:28:01;12.55;;;7.30;;
53056;SDS011;38940;50.096;4.012;2023-04-24T06:30:27;11.00;;;6.55;;
53056;SDS011;38940;50.096;4.012;2023-04-24T06:32:53;13.77;;;8.55;;
53056;SDS011;38940;50.096;4.012;2023-04-24T06:35:19;13.65;;;7.90;;
53056;SDS011;38940;50.096;4.012;2023-04-24T06:37:45;14.88;;;7.18;;
53056;SDS011;38940;50.096;4.012;2023-04-24T06:40:11;14.52;;;7.10;;
53056;SDS011;38940;50.096;4.012;2023-04-24T06:42:38;11.05;;;6.80;;
53056;SDS011;38940;50.096;4.012;2023-04-24T06:45:04;12.55;;;6.15;;
53056;SDS011;38940;50.096;4.012;2023-04-24T06:47:30;12.13;;;7.47;;
53056;SDS011;38940;50.096;4.012;2023-04-24T06:49:56;14.50;;;8.27;;
53056;SDS011;38940;50.096;4.012;2023-04-24T06:52:23;12.52;;;7.72;;
53056;SDS011;38940;50.096;4.012;2023-04-24T06:54:49;15.32;;;9.13;;
53056;SDS011;38940;50.096;4.012;2023-04-24T06:57:15;14.23;;;8.13;;
53056;SDS011;38940;50.096;4.012;2023-04-24T06:59:43;14.40;;;8.02;;
53056;SDS011;38940;50.096;4.012;2023-04-24T07:02:09;15.68;;;8.57;;
53056;SDS011;38940;50.096;4.012;2023-04-24T07:04:35;16.60;;;9.30;;
53056;SDS011;38940;50.096;4.012;2023-04-24T07:07:01;17.27;;;8.00;;
53056;SDS011;38940;50.096;4.012;2023-04-24T07:09:28;13.88;;;8.88;;
53056;SDS011;38940;50.096;4.012;2023-04-24T07:11:54;15.82;;;8.15;;
53056;SDS011;38940;50.096;4.012;2023-04-24T07:14:21;13.43;;;8.45;;
53056;SDS011;38940;50.096;4.012;2023-04-24T07:16:47;16.45;;;7.88;;
53056;SDS011;38940;50.096;4.012;2023-04-24T07:19:14;17.42;;;7.93;;
53056;SDS011;38940;50.096;4.012;2023-04-24T07:21:40;14.95;;;7.43;;
53056;SDS011;38940;50.096;4.012;2023-04-24T07:24:06;13.98;;;7.03;;
53056;SDS011;38940;50.096;4.012;2023-04-24T07:26:35;13.20;;;6.75;;
53056;SDS011;38940;50.096;4.012;2023-04-24T07:29:01;15.23;;;7.35;;
53056;SDS011;38940;50.096;4.012;2023-04-24T07:31:27;14.75;;;7.30;;
53056;SDS011;38940;50.096;4.012;2023-04-24T07:33:54;14.30;;;6.85;;
53056;SDS011;38940;50.096;4.012;2023-04-24T07:36:22;14.00;;;7.13;;
53056;SDS011;38940;50.096;4.012;2023-04-24T07:38:49;13.93;;;7.07;;
53056;SDS011;38940;50.096;4.012;2023-04-24T07:41:15;12.55;;;7.13;;
53056;SDS011;38940;50.096;4.012;2023-04-24T07:43:41;14.00;;;7.22;;
53056;SDS011;38940;50.096;4.012;2023-04-24T07:46:08;14.57;;;7.20;;
53056;SDS011;38940;50.096;4.012;2023-04-24T07:48:34;16.13;;;6.57;;
53056;SDS011;38940;50.096;4.012;2023-04-24T07:51:00;13.05;;;6.30;;
53056;SDS011;38940;50.096;4.012;2023-04-24T07:53:26;13.40;;;6.65;;
53056;SDS011;38940;50.096;4.012;2023-04-24T07:55:53;13.30;;;6.80;;
53056;SDS011;38940;50.096;4.012;2023-04-24T07:58:20;13.18;;;6.82;;
53056;SDS011;38940;50.096;4.012;2023-04-24T08:00:46;14.23;;;7.25;;
53056;SDS011;38940;50.096;4.012;2023-04-24T08:03:12;15.57;;;6.93;;
53056;SDS011;38940;50.096;4.012;2023-04-24T08:05:38;16.65;;;7.53;;
53056;SDS011;38940;50.096;4.012;2023-04-24T08:08:04;15.13;;;7.15;;
53056;SDS011;38940;50.096;4.012;2023-04-24T08:10:30;15.43;;;7.60;;
53056;SDS011;38940;50.096;4.012;2023-04-24T08:12:56;14.45;;;7.60;;
53056;SDS011;38940;50.096;4.012;2023-04-24T08:15:22;15.23;;;7.05;;
53056;SDS011;38940;50.096;4.012;2023-04-24T08:17:48;17.00;;;7.68;;
53056;SDS011;38940;50.096;4.012;2023-04-24T08:20:15;15.75;;;6.97;;
53056;SDS011;38940;50.096;4.012;2023-04-24T08:22:41;16.27;;;6.68;;
53056;SDS011;38940;50.096;4.012;2023-04-24T08:25:08;11.82;;;6.60;;
53056;SDS011;38940;50.096;4.012;2023-04-24T08:27:35;17.90;;;6.85;;
53056;SDS011;38940;50.096;4.012;2023-04-24T08:30:02;13.77;;;7.53;;
53056;SDS011;38940;50.096;4.012;2023-04-24T08:32:28;11.35;;;6.18;;
53056;SDS011;38940;50.096;4.012;2023-04-24T08:34:54;18.67;;;7.47;;
53056;SDS011;38940;50.096;4.012;2023-04-24T08:37:21;12.82;;;6.65;;
53056;SDS011;38940;50.096;4.012;2023-04-24T08:39:47;13.05;;;6.00;;
53056;SDS011;38940;50.096;4.012;2023-04-24T08:42:13;20.10;;;7.68;;
53056;SDS011;38940;50.096;4.012;2023-04-24T08:44:39;17.57;;;6.97;;
53056;SDS011;38940;50.096;4.012;2023-04-24T08:47:06;15.15;;;7.20;;
53056;SDS011;38940;50.096;4.012;2023-04-24T08:49:33;15.07;;;7.10;;
53056;SDS011;38940;50.096;4.012;2023-04-24T08:51:59;16.85;;;7.13;;
53056;SDS011;38940;50.096;4.012;2023-04-24T08:54:26;20.38;;;7.90;;
53056;SDS011;38940;50.096;4.012;2023-04-24T08:56:57;15.65;;;7.70;;
53056;SDS011;38940;50.096;4.012;2023-04-24T08:59:26;16.80;;;7.47;;
53056;SDS011;38940;50.096;4.012;2023-04-24T09:01:53;15.57;;;7.28;;
53056;SDS011;38940;50.096;4.012;2023-04-24T09:04:20;17.88;;;7.35;;
53056;SDS011;38940;50.096;4.012;2023-04-24T09:06:49;17.55;;;7.57;;
53056;SDS011;38940;50.096;4.012;2023-04-24T09:09:15;16.75;;;7.63;;
53056;SDS011;38940;50.096;4.012;2023-04-24T09:11:42;18.58;;;6.45;;
53056;SDS011;38940;50.096;4.012;2023-04-24T09:14:09;14.55;;;6.72;;
53056;SDS011;38940;50.096;4.012;2023-04-24T09:16:35;14.03;;;6.87;;
53056;SDS011;38940;50.096;4.012;2023-04-24T09:19:01;11.90;;;6.27;;
53056;SDS011;38940;50.096;4.012;2023-04-24T09:21:34;12.75;;;6.15;;
53056;SDS011;38940;50.096;4.012;2023-04-24T09:24:02;12.23;;;5.90;;
53056;SDS011;38940;50.096;4.012;2023-04-24T09:26:31;15.95;;;6.60;;
53056;SDS011;38940;50.096;4.012;2023-04-24T09:28:58;19.98;;;6.18;;
53056;SDS011;38940;50.096;4.012;2023-04-24T09:31:24;14.32;;;6.50;;
53056;SDS011;38940;50.096;4.012;2023-04-24T09:33:55;12.18;;;6.22;;
53056;SDS011;38940;50.096;4.012;2023-04-24T09:36:41;13.35;;;6.00;;
53056;SDS011;38940;50.096;4.012;2023-04-24T09:39:09;16.88;;;6.97;;
53056;SDS011;38940;50.096;4.012;2023-04-24T09:44:16;12.70;;;6.50;;
53056;SDS011;38940;50.096;4.012;2023-04-24T09:46:42;12.57;;;6.55;;
53056;SDS011;38940;50.096;4.012;2023-04-24T09:49:13;14.10;;;6.57;;
53056;SDS011;38940;50.096;4.012;2023-04-24T09:51:40;16.73;;;6.68;;
53056;SDS011;38940;50.096;4.012;2023-04-24T09:54:16;15.10;;;6.50;;
53056;SDS011;38940;50.096;4.012;2023-04-24T09:56:43;13.43;;;6.32;;
53056;SDS011;38940;50.096;4.012;2023-04-24T09:59:10;14.73;;;7.00;;
53056;SDS011;38940;50.096;4.012;2023-04-24T10:01:36;14.45;;;7.20;;
53056;SDS011;38940;50.096;4.012;2023-04-24T10:04:03;15.25;;;6.50;;
53056;SDS011;38940;50.096;4.012;2023-04-24T10:06:31;13.53;;;5.83;;
53056;SDS011;38940;50.096;4.012;2023-04-24T10:08:57;18.25;;;6.68;;
53056;SDS011;38940;50.096;4.012;2023-04-24T10:11:23;19.27;;;6.38;;
53056;SDS011;38940;50.096;4.012;2023-04-24T10:13:50;10.70;;;6.20;;
53056;SDS011;38940;50.096;4.012;2023-04-24T10:16:17;17.40;;;7.30;;
53056;SDS011;38940;50.096;4.012;2023-04-24T10:18:43;16.90;;;7.05;;
53056;SDS011;38940;50.096;4.012;2023-04-24T10:21:09;14.50;;;6.70;;
53056;SDS011;38940;50.096;4.012;2023-04-24T10:23:35;16.20;;;7.20;;
53056;SDS011;38940;50.096;4.012;2023-04-24T10:26:02;13.40;;;6.83;;
53056;SDS011;38940;50.096;4.012;2023-04-24T10:28:28;14.75;;;7.22;;
53056;SDS011;38940;50.096;4.012;2023-04-24T10:30:56;17.52;;;8.00;;
53056;SDS011;38940;50.096;4.012;2023-04-24T10:33:22;15.25;;;7.55;;
53056;SDS011;38940;50.096;4.012;2023-04-24T10:35:49;15.57;;;7.57;;
53056;SDS011;38940;50.096;4.012;2023-04-24T10:38:17;15.40;;;7.28;;
53056;SDS011;38940;50.096;4.012;2023-04-24T10:40:44;13.45;;;7.90;;
53056;SDS011;38940;50.096;4.012;2023-04-24T10:43:10;17.75;;;8.63;;
53056;SDS011;38940;50.096;4.012;2023-04-24T10:45:36;14.38;;;8.27;;
53056;SDS011;38940;50.096;4.012;2023-04-24T10:48:03;18.65;;;8.85;;
53056;SDS011;38940;50.096;4.012;2023-04-24T10:53:28;16.85;;;8.63;;
53056;SDS011;38940;50.096;4.012;2023-04-24T10:58:24;17.92;;;8.68;;
53056;SDS011;38940;50.096;4.012;2023-04-24T11:01:00;18.77;;;9.77;;
53056;SDS011;38940;50.096;4.012;2023-04-24T11:03:28;19.70;;;8.88;;
53056;SDS011;38940;50.096;4.012;2023-04-24T11:10:56;15.70;;;9.77;;
53056;SDS011;38940;50.096;4.012;2023-04-24T11:13:24;17.70;;;9.75;;
53056;SDS011;38940;50.096;4.012;2023-04-24T11:18:38;17.77;;;9.10;;
53056;SDS011;38940;50.096;4.012;2023-04-24T11:21:17;16.13;;;9.77;;
53056;SDS011;38940;50.096;4.012;2023-04-24T11:23:44;15.60;;;8.38;;
53056;SDS011;38940;50.096;4.012;2023-04-24T11:26:14;18.70;;;10.38;;
53056;SDS011;38940;50.096;4.012;2023-04-24T11:28:46;19.67;;;9.27;;
53056;SDS011;38940;50.096;4.012;2023-04-24T11:33:57;14.60;;;9.68;;
53056;SDS011;38940;50.096;4.012;2023-04-24T11:36:31;15.20;;;8.70;;
53056;SDS011;38940;50.096;4.012;2023-04-24T11:38:57;13.23;;;9.17;;
53056;SDS011;38940;50.096;4.012;2023-04-24T11:41:23;13.20;;;8.13;;
53056;SDS011;38940;50.096;4.012;2023-04-24T11:43:50;14.83;;;9.47;;
53056;SDS011;38940;50.096;4.012;2023-04-24T11:46:17;16.17;;;9.50;;
53056;SDS011;38940;50.096;4.012;2023-04-24T11:48:46;15.70;;;9.05;;
53056;SDS011;38940;50.096;4.012;2023-04-24T11:51:12;15.52;;;8.13;;
53056;SDS011;38940;50.096;4.012;2023-04-24T11:53:39;15.82;;;9.43;;
53056;SDS011;38940;50.096;4.012;2023-04-24T11:56:05;13.82;;;10.30;;
53056;SDS011;38940;50.096;4.012;2023-04-24T11:58:38;13.25;;;8.13;;
53056;SDS011;38940;50.096;4.012;2023-04-24T12:01:04;18.35;;;8.70;;
53056;SDS011;38940;50.096;4.012;2023-04-24T12:03:30;15.15;;;8.73;;
53056;SDS011;38940;50.096;4.012;2023-04-24T12:06:06;14.73;;;8.60;;
53056;SDS011;38940;50.096;4.012;2023-04-24T12:08:33;15.35;;;9.35;;
53056;SDS011;38940;50.096;4.012;2023-04-24T12:11:02;17.13;;;10.05;;
53056;SDS011;38940;50.096;4.012;2023-04-24T12:13:28;17.93;;;10.33;;
53056;SDS011;38940;50.096;4.012;2023-04-24T12:15:56;14.27;;;8.65;;
53056;SDS011;38940;50.096;4.012;2023-04-24T12:18:22;12.55;;;7.32;;
53056;SDS011;38940;50.096;4.012;2023-04-24T12:20:48;15.95;;;8.85;;
53056;SDS011;38940;50.096;4.012;2023-04-24T12:23:15;12.73;;;6.95;;
53056;SDS011;38940;50.096;4.012;2023-04-24T12:25:41;11.48;;;6.85;;
53056;SDS011;38940;50.096;4.012;2023-04-24T12:28:11;10.73;;;6.30;;
53056;SDS011;38940;50.096;4.012;2023-04-24T12:30:47;10.75;;;6.65;;
53056;SDS011;38940;50.096;4.012;2023-04-24T12:33:20;12.30;;;6.43;;
53056;SDS011;38940;50.096;4.012;2023-04-24T12:35:47;11.18;;;6.47;;
53056;SDS011;38940;50.096;4.012;2023-04-24T12:38:13;11.35;;;6.65;;
53056;SDS011;38940;50.096;4.012;2023-04-24T12:40:40;10.20;;;6.13;;
53056;SDS011;38940;50.096;4.012;2023-04-24T12:43:15;10.00;;;5.97;;
53056;SDS011;38940;50.096;4.012;2023-04-24T12:45:42;9.90;;;6.43;;
53056;SDS011;38940;50.096;4.012;2023-04-24T12:48:09;10.40;;;6.47;;
53056;SDS011;38940;50.096;4.012;2023-04-24T12:50:35;12.10;;;7.32;;
53056;SDS011;38940;50.096;4.012;2023-04-24T12:53:01;14.38;;;7.80;;
53056;SDS011;38940;50.096;4.012;2023-04-24T12:55:27;11.27;;;7.60;;
53056;SDS011;38940;50.096;4.012;2023-04-24T12:57:53;11.70;;;7.07;;
53056;SDS011;38940;50.096;4.012;2023-04-24T13:00:20;12.63;;;7.45;;
53056;SDS011;38940;50.096;4.012;2023-04-24T13:02:46;12.57;;;8.23;;
53056;SDS011;38940;50.096;4.012;2023-04-24T13:05:12;14.30;;;8.30;;
53056;SDS011;38940;50.096;4.012;2023-04-24T13:07:38;12.65;;;8.13;;
53056;SDS011;38940;50.096;4.012;2023-04-24T13:10:05;18.25;;;8.95;;
53056;SDS011;38940;50.096;4.012;2023-04-24T13:12:31;11.30;;;7.50;;
53056;SDS011;38940;50.096;4.012;2023-04-24T13:14:57;11.75;;;7.30;;
53056;SDS011;38940;50.096;4.012;2023-04-24T13:17:23;11.10;;;6.68;;
53056;SDS011;38940;50.096;4.012;2023-04-24T13:19:50;11.02;;;7.10;;
53056;SDS011;38940;50.096;4.012;2023-04-24T13:22:17;12.73;;;7.53;;
53056;SDS011;38940;50.096;4.012;2023-04-24T13:24:46;13.38;;;7.40;;
53056;SDS011;38940;50.096;4.012;2023-04-24T13:27:13;12.10;;;6.93;;
53056;SDS011;38940;50.096;4.012;2023-04-24T13:29:39;10.45;;;6.50;;
53056;SDS011;38940;50.096;4.012;2023-04-24T13:32:05;11.00;;;5.35;;
53056;SDS011;38940;50.096;4.012;2023-04-24T13:34:32;10.38;;;7.20;;
53056;SDS011;38940;50.096;4.012;2023-04-24T13:36:59;10.88;;;6.10;;
53056;SDS011;38940;50.096;4.012;2023-04-24T13:39:25;8.98;;;6.05;;
53056;SDS011;38940;50.096;4.012;2023-04-24T13:41:53;12.25;;;5.75;;
53056;SDS011;38940;50.096;4.012;2023-04-24T13:44:20;9.23;;;5.55;;
53056;SDS011;38940;50.096;4.012;2023-04-24T13:46:47;8.43;;;5.18;;
53056;SDS011;38940;50.096;4.012;2023-04-24T13:49:13;10.27;;;5.57;;
53056;SDS011;38940;50.096;4.012;2023-04-24T13:51:40;8.15;;;5.50;;
53056;SDS011;38940;50.096;4.012;2023-04-24T13:54:06;9.30;;;5.90;;
53056;SDS011;38940;50.096;4.012;2023-04-24T13:56:32;9.38;;;5.57;;
53056;SDS011;38940;50.096;4.012;2023-04-24T13:58:58;10.47;;;5.57;;
53056;SDS011;38940;50.096;4.012;2023-04-24T14:01:25;11.68;;;5.40;;
53056;SDS011;38940;50.096;4.012;2023-04-24T14:03:51;11.73;;;5.50;;
53056;SDS011;38940;50.096;4.012;2023-04-24T14:06:18;10.65;;;5.70;;
53056;SDS011;38940;50.096;4.012;2023-04-24T14:08:44;12.23;;;5.78;;
53056;SDS011;38940;50.096;4.012;2023-04-24T14:11:10;11.50;;;5.97;;
53056;SDS011;38940;50.096;4.012;2023-04-24T14:13:36;8.38;;;5.60;;
53056;SDS011;38940;50.096;4.012;2023-04-24T14:16:03;11.13;;;5.73;;
53056;SDS011;38940;50.096;4.012;2023-04-24T14:18:29;8.40;;;5.68;;
53056;SDS011;38940;50.096;4.012;2023-04-24T14:20:55;9.00;;;5.53;;
53056;SDS011;38940;50.096;4.012;2023-04-24T14:23:21;10.93;;;6.03;;
53056;SDS011;38940;50.096;4.012;2023-04-24T14:25:47;8.32;;;5.55;;
53056;SDS011;38940;50.096;4.012;2023-04-24T14:28:16;7.95;;;5.38;;
53056;SDS011;38940;50.096;4.012;2023-04-24T14:30:42;7.97;;;5.45;;
53056;SDS011;38940;50.096;4.012;2023-04-24T14:33:08;9.48;;;5.70;;
53056;SDS011;38940;50.096;4.012;2023-04-24T14:35:35;9.48;;;5.72;;
53056;SDS011;38940;50.096;4.012;2023-04-24T14:38:01;9.88;;;5.35;;
53056;SDS011;38940;50.096;4.012;2023-04-24T14:40:27;8.88;;;5.60;;
53056;SDS011;38940;50.096;4.012;2023-04-24T14:42:54;9.63;;;5.30;;
53056;SDS011;38940;50.096;4.012;2023-04-24T14:45:22;8.67;;;6.00;;
53056;SDS011;38940;50.096;4.012;2023-04-24T14:47:48;13.10;;;6.45;;
53056;SDS011;38940;50.096;4.012;2023-04-24T14:50:14;5.63;;;3.50;;
53056;SDS011;38940;50.096;4.012;2023-04-24T14:52:40;8.15;;;4.28;;
53056;SDS011;38940;50.096;4.012;2023-04-24T14:55:06;8.20;;;4.00;;